createdAt,value
2022-12-31T00:00:07.889Z,0.98
2022-12-31T00:02:35.007Z,0.70
2022-12-31T00:05:02.311Z,0.80
2022-12-31T00:07:29.289Z,0.65
2022-12-31T00:09:56.238Z,0.73
2022-12-31T00:12:23.258Z,0.80
2022-12-31T00:14:50.112Z,0.80
2022-12-31T00:17:17.071Z,0.70
2022-12-31T00:19:44.003Z,0.80
2022-12-31T00:22:10.984Z,0.80
2022-12-31T00:24:37.995Z,0.70
2022-12-31T00:27:04.944Z,0.80
2022-12-31T00:29:32.003Z,0.60
2022-12-31T00:31:59.233Z,0.77
2022-12-31T00:34:26.292Z,0.70
2022-12-31T00:36:53.273Z,0.80
2022-12-31T00:39:20.188Z,0.80
2022-12-31T00:41:47.166Z,0.70
2022-12-31T00:44:14.264Z,0.77
2022-12-31T00:49:07.092Z,0.63
2022-12-31T00:51:34.017Z,0.98
2022-12-31T00:54:01.122Z,0.90
2022-12-31T00:56:29.735Z,0.55
2022-12-31T00:58:57.140Z,0.88
2022-12-31T01:01:26.291Z,0.70
2022-12-31T01:03:55.509Z,0.70
2022-12-31T01:06:22.530Z,0.60
2022-12-31T01:08:49.875Z,1.00
2022-12-31T01:11:19.838Z,0.57
2022-12-31T01:13:48.684Z,0.55
2022-12-31T01:16:16.136Z,0.50
2022-12-31T01:18:43.149Z,0.63
2022-12-31T01:21:11.049Z,0.88
2022-12-31T01:23:38.156Z,0.70
2022-12-31T01:26:06.140Z,0.80
2022-12-31T01:28:33.380Z,0.90
2022-12-31T01:31:04.177Z,0.68
2022-12-31T01:33:31.146Z,0.70
2022-12-31T01:36:02.883Z,0.60
2022-12-31T01:38:30.140Z,0.80
2022-12-31T01:40:57.084Z,0.90
2022-12-31T01:43:23.995Z,0.90
2022-12-31T01:45:53.606Z,0.45
2022-12-31T01:48:25.113Z,0.70
2022-12-31T01:50:52.404Z,0.85
2022-12-31T01:53:19.397Z,0.82
2022-12-31T01:55:50.721Z,0.47
2022-12-31T01:58:20.391Z,0.80
2022-12-31T02:00:48.062Z,0.82
2022-12-31T02:03:15.310Z,0.90
2022-12-31T02:06:08.499Z,0.90
2022-12-31T02:08:41.620Z,0.82
2022-12-31T02:11:33.074Z,0.90
2022-12-31T02:14:07.582Z,0.70
2022-12-31T02:17:11.107Z,0.77
2022-12-31T02:19:44.026Z,0.70
2022-12-31T02:22:52.146Z,0.75
2022-12-31T02:25:19.506Z,1.20
2022-12-31T02:28:06.489Z,0.65
2022-12-31T02:30:33.602Z,0.80
2022-12-31T02:33:38.883Z,0.80
2022-12-31T02:36:08.668Z,0.60
2022-12-31T02:38:43.312Z,0.77
2022-12-31T02:41:34.303Z,0.80
2022-12-31T02:44:01.352Z,0.60
2022-12-31T02:46:38.394Z,0.68
2022-12-31T02:49:12.563Z,0.70
2022-12-31T02:51:46.725Z,0.70
2022-12-31T02:54:34.243Z,0.90
2022-12-31T02:57:15.208Z,0.70
2022-12-31T03:00:00.711Z,0.75
2022-12-31T03:02:28.417Z,0.80
2022-12-31T03:04:56.246Z,0.68
2022-12-31T03:07:27.486Z,0.60
2022-12-31T03:09:54.499Z,0.73
2022-12-31T03:12:47.632Z,0.47
2022-12-31T03:15:28.375Z,0.57
2022-12-31T03:18:07.979Z,0.80
2022-12-31T03:20:57.449Z,0.82
2022-12-31T03:23:31.279Z,0.68
2022-12-31T03:25:58.650Z,0.68
2022-12-31T03:28:27.370Z,0.55
2022-12-31T03:31:04.447Z,0.80
2022-12-31T03:35:58.921Z,0.63
2022-12-31T03:38:25.937Z,0.60
2022-12-31T03:40:53.050Z,0.70
2022-12-31T03:43:20.228Z,0.75
2022-12-31T03:45:51.794Z,0.68
2022-12-31T03:48:19.001Z,0.50
2022-12-31T03:50:45.953Z,0.57
2022-12-31T03:53:13.056Z,0.80
2022-12-31T03:55:39.954Z,0.70
2022-12-31T03:58:06.947Z,0.70
2022-12-31T04:00:33.847Z,0.68
2022-12-31T04:03:01.004Z,0.60
2022-12-31T04:05:27.991Z,0.57
2022-12-31T04:07:55.856Z,0.60
2022-12-31T04:10:22.887Z,0.77
2022-12-31T04:12:49.902Z,0.70
2022-12-31T04:15:18.820Z,0.60
2022-12-31T04:17:46.147Z,0.50
2022-12-31T04:20:13.158Z,0.70
2022-12-31T04:22:40.083Z,0.57
2022-12-31T04:25:11.344Z,0.75
2022-12-31T04:27:43.593Z,0.68
2022-12-31T04:30:11.994Z,0.70
2022-12-31T04:32:38.937Z,0.57
2022-12-31T04:35:06.377Z,0.55
2022-12-31T04:37:33.285Z,0.47
2022-12-31T04:40:05.493Z,0.50
2022-12-31T04:42:33.616Z,0.40
2022-12-31T04:45:00.612Z,0.60
2022-12-31T04:47:27.587Z,0.60
2022-12-31T04:49:54.579Z,0.63
2022-12-31T04:52:22.706Z,0.45
2022-12-31T04:54:49.726Z,0.52
2022-12-31T04:57:16.686Z,0.40
2022-12-31T04:59:43.742Z,0.57
2022-12-31T05:02:10.972Z,0.70
2022-12-31T05:04:38.231Z,0.38
2022-12-31T05:07:05.177Z,0.50
2022-12-31T05:09:32.284Z,0.80
2022-12-31T05:11:59.186Z,0.55
2022-12-31T05:14:26.241Z,0.40
2022-12-31T05:16:53.792Z,0.28
2022-12-31T05:19:20.804Z,0.57
2022-12-31T05:22:07.699Z,0.40
2022-12-31T05:24:34.626Z,0.60
2022-12-31T05:27:01.934Z,0.60
2022-12-31T05:29:28.874Z,0.73
2022-12-31T05:31:55.948Z,0.63
2022-12-31T05:34:22.893Z,0.57
2022-12-31T05:36:49.909Z,0.52
2022-12-31T05:39:16.949Z,0.35
2022-12-31T05:41:43.965Z,0.43
2022-12-31T05:44:11.165Z,0.30
2022-12-31T05:46:38.159Z,0.47
2022-12-31T05:49:05.100Z,0.50
2022-12-31T05:51:32.029Z,0.63
2022-12-31T05:53:58.984Z,0.47
2022-12-31T05:56:25.922Z,0.32
2022-12-31T05:58:52.923Z,0.32
2022-12-31T06:01:20.016Z,0.60
2022-12-31T06:03:47.254Z,0.50
2022-12-31T06:06:14.650Z,0.30
2022-12-31T06:08:41.595Z,0.40
2022-12-31T06:11:08.510Z,0.50
2022-12-31T06:13:35.476Z,0.40
2022-12-31T06:16:07.331Z,0.40
2022-12-31T06:18:34.314Z,0.40
2022-12-31T06:21:04.133Z,0.30
2022-12-31T06:23:31.074Z,0.50
2022-12-31T06:26:02.158Z,0.50
2022-12-31T06:28:29.124Z,0.40
2022-12-31T06:31:00.472Z,0.55
2022-12-31T06:33:27.708Z,0.50
2022-12-31T06:36:01.907Z,0.38
2022-12-31T06:38:30.041Z,0.28
2022-12-31T06:40:56.976Z,0.40
2022-12-31T06:43:23.882Z,0.52
2022-12-31T06:45:50.846Z,0.68
2022-12-31T06:48:18.732Z,0.50
2022-12-31T06:50:45.671Z,0.32
2022-12-31T06:53:12.626Z,0.38
2022-12-31T06:55:39.823Z,0.50
2022-12-31T06:58:09.405Z,0.40
2022-12-31T07:00:36.367Z,0.40
2022-12-31T07:03:26.266Z,0.50
2022-12-31T07:05:57.229Z,0.70
2022-12-31T07:08:28.038Z,0.30
2022-12-31T07:11:04.522Z,0.45
2022-12-31T07:13:46.744Z,0.40
2022-12-31T07:16:49.439Z,0.40
2022-12-31T07:19:18.771Z,0.55
2022-12-31T07:21:46.023Z,0.50
2022-12-31T07:24:13.565Z,0.60
2022-12-31T07:26:48.755Z,0.40
2022-12-31T07:29:44.593Z,0.50
2022-12-31T07:32:34.608Z,0.32
2022-12-31T07:35:05.567Z,0.60
2022-12-31T07:37:39.767Z,0.50
2022-12-31T07:40:15.959Z,0.30
2022-12-31T07:42:45.926Z,0.38
2022-12-31T07:45:15.516Z,0.65
2022-12-31T07:47:42.713Z,0.50
2022-12-31T07:50:14.994Z,0.30
2022-12-31T07:52:42.152Z,0.52
2022-12-31T07:55:10.805Z,0.40
2022-12-31T07:58:06.502Z,0.50
2022-12-31T08:00:33.456Z,0.43
2022-12-31T08:03:15.641Z,0.47
2022-12-31T08:06:27.109Z,0.30
2022-12-31T08:09:11.587Z,0.40
2022-12-31T08:11:43.296Z,0.47
2022-12-31T08:14:13.662Z,0.52
2022-12-31T08:16:41.095Z,0.40
2022-12-31T08:19:14.770Z,0.50
2022-12-31T08:21:59.908Z,0.52
2022-12-31T08:25:01.069Z,0.43
2022-12-31T08:27:28.021Z,0.50
2022-12-31T08:30:09.973Z,0.40
2022-12-31T08:32:45.829Z,0.88
2022-12-31T08:35:44.877Z,0.38
2022-12-31T08:38:38.888Z,0.50
2022-12-31T08:41:30.677Z,0.40
2022-12-31T08:44:11.420Z,0.52
2022-12-31T08:47:08.780Z,0.50
2022-12-31T08:49:37.029Z,0.40
2022-12-31T08:52:04.310Z,0.55
2022-12-31T08:54:31.315Z,0.45
2022-12-31T08:57:09.957Z,0.50
2022-12-31T08:59:36.839Z,0.60
2022-12-31T09:02:22.523Z,0.50
2022-12-31T09:05:08.607Z,0.52
2022-12-31T09:07:40.719Z,0.50
2022-12-31T09:10:30.072Z,0.43
2022-12-31T09:13:01.369Z,0.40
2022-12-31T09:16:03.322Z,0.40
2022-12-31T09:18:33.369Z,0.60
2022-12-31T09:21:00.713Z,0.47
2022-12-31T09:23:28.031Z,0.43
2022-12-31T09:26:13.740Z,0.60
2022-12-31T09:29:01.861Z,0.38
2022-12-31T09:31:39.707Z,0.65
2022-12-31T09:34:34.490Z,0.47
2022-12-31T09:37:09.483Z,0.80
2022-12-31T09:39:44.170Z,0.88
2022-12-31T09:42:39.313Z,0.40
2022-12-31T09:45:28.683Z,0.50
2022-12-31T09:48:15.773Z,0.50
2022-12-31T09:51:13.117Z,0.52
2022-12-31T09:53:58.791Z,0.45
2022-12-31T09:56:34.353Z,0.50
2022-12-31T09:59:11.100Z,0.60
2022-12-31T10:01:41.174Z,0.52
2022-12-31T10:04:45.124Z,0.50
2022-12-31T10:07:18.030Z,0.50
2022-12-31T10:10:00.736Z,0.70
2022-12-31T10:12:46.760Z,0.32
2022-12-31T10:15:52.741Z,0.70
2022-12-31T10:18:42.770Z,0.50
2022-12-31T10:21:21.746Z,0.60
2022-12-31T10:24:18.479Z,0.50
2022-12-31T10:26:53.497Z,0.60
2022-12-31T10:29:46.103Z,0.60
2022-12-31T10:32:20.227Z,1.05
2022-12-31T10:34:53.826Z,0.77
2022-12-31T10:37:35.572Z,0.60
2022-12-31T10:40:24.443Z,0.50
2022-12-31T10:43:13.647Z,0.80
2022-12-31T10:46:22.604Z,0.70
2022-12-31T10:48:57.646Z,0.55
2022-12-31T10:51:32.706Z,0.70
2022-12-31T10:54:24.490Z,0.63
2022-12-31T10:57:13.257Z,0.60
2022-12-31T10:59:56.762Z,0.60
2022-12-31T11:02:45.531Z,0.60
2022-12-31T11:05:37.402Z,0.60
2022-12-31T11:08:48.994Z,0.70
2022-12-31T11:11:53.707Z,0.90
2022-12-31T11:14:34.242Z,0.90
2022-12-31T11:17:13.281Z,0.70
2022-12-31T11:19:52.643Z,0.80
2022-12-31T11:22:38.805Z,0.75
2022-12-31T11:25:11.861Z,0.60
2022-12-31T11:27:49.471Z,0.65
2022-12-31T11:31:04.353Z,0.52
2022-12-31T11:33:50.016Z,0.82
2022-12-31T11:36:41.743Z,0.50
2022-12-31T11:39:31.438Z,0.40
2022-12-31T11:42:30.918Z,0.80
2022-12-31T11:45:00.008Z,0.50
2022-12-31T11:48:04.239Z,0.40
2022-12-31T11:53:23.949Z,0.55
2022-12-31T11:56:05.665Z,0.52
2022-12-31T11:58:32.633Z,0.50
2022-12-31T12:01:05.022Z,0.70
2022-12-31T12:03:32.203Z,0.50
2022-12-31T12:05:59.241Z,0.60
2022-12-31T12:08:27.158Z,0.40
2022-12-31T12:11:00.678Z,0.47
2022-12-31T12:13:28.002Z,0.63
2022-12-31T12:15:59.335Z,0.30
2022-12-31T12:18:40.981Z,0.52
2022-12-31T12:21:21.231Z,0.30
2022-12-31T12:24:05.879Z,0.50
2022-12-31T12:26:37.946Z,0.60
2022-12-31T12:29:28.338Z,0.40
2022-12-31T12:31:58.854Z,0.50
2022-12-31T12:34:30.572Z,0.50
2022-12-31T12:36:57.707Z,0.60
2022-12-31T12:39:34.143Z,0.70
2022-12-31T12:42:15.364Z,0.52
2022-12-31T12:44:42.840Z,0.40
2022-12-31T12:47:15.207Z,0.40
2022-12-31T12:49:46.368Z,0.50
2022-12-31T12:53:01.026Z,0.60
2022-12-31T12:56:06.243Z,0.70
2022-12-31T12:58:53.255Z,0.70
2022-12-31T13:01:48.281Z,0.57
2022-12-31T13:04:33.888Z,0.50
2022-12-31T13:07:12.338Z,0.75
2022-12-31T13:09:59.198Z,0.60
2022-12-31T13:12:37.867Z,0.70
2022-12-31T13:15:20.596Z,0.50
2022-12-31T13:18:03.192Z,0.50
2022-12-31T13:20:38.350Z,0.50
2022-12-31T13:23:05.464Z,0.50
2022-12-31T13:25:45.987Z,0.82
2022-12-31T13:28:14.024Z,0.60
2022-12-31T13:30:43.703Z,0.60
2022-12-31T13:33:23.069Z,0.70
2022-12-31T13:35:52.732Z,0.47
2022-12-31T13:38:36.008Z,0.70
2022-12-31T13:44:02.626Z,0.70
2022-12-31T13:46:44.546Z,0.50
2022-12-31T13:49:14.492Z,0.70
2022-12-31T13:51:51.767Z,0.57
2022-12-31T13:54:52.732Z,0.57
2022-12-31T13:57:34.788Z,0.60
2022-12-31T14:00:04.087Z,0.70
2022-12-31T14:02:51.245Z,0.75
2022-12-31T14:05:23.601Z,1.00
2022-12-31T14:08:01.085Z,0.80
2022-12-31T14:10:42.737Z,0.90
2022-12-31T14:13:34.578Z,0.80
2022-12-31T14:16:05.419Z,0.80
2022-12-31T14:18:58.131Z,2.50
2022-12-31T14:21:32.055Z,1.20
2022-12-31T14:24:28.338Z,1.38
2022-12-31T14:26:57.371Z,2.40
2022-12-31T14:29:50.085Z,1.60
2022-12-31T14:32:49.795Z,1.30
2022-12-31T14:35:32.817Z,1.70
2022-12-31T14:38:24.155Z,1.60
2022-12-31T14:41:19.692Z,1.70
2022-12-31T14:44:13.781Z,1.27
2022-12-31T14:46:59.361Z,1.77
2022-12-31T14:50:03.412Z,1.30
2022-12-31T14:52:32.260Z,1.08
2022-12-31T14:55:15.125Z,0.98
2022-12-31T14:58:26.050Z,2.35
2022-12-31T15:00:35.333Z,2.10
2022-12-31T15:03:03.597Z,1.40
2022-12-31T15:05:32.667Z,1.30
2022-12-31T15:08:08.985Z,0.98
2022-12-31T15:10:42.027Z,1.48
2022-12-31T15:13:26.243Z,1.30
2022-12-31T15:16:03.614Z,1.63
2022-12-31T15:18:46.655Z,1.55
2022-12-31T15:21:37.528Z,1.90
2022-12-31T15:24:27.446Z,1.52
2022-12-31T15:26:56.472Z,1.35
2022-12-31T15:29:33.045Z,1.50
2022-12-31T15:32:01.748Z,3.45
2022-12-31T15:34:34.788Z,2.40
2022-12-31T15:37:28.571Z,1.83
2022-12-31T15:40:05.653Z,2.20
2022-12-31T15:45:20.343Z,3.70
2022-12-31T15:47:48.728Z,1.90
2022-12-31T15:50:20.344Z,2.33
2022-12-31T15:52:53.968Z,2.08
2022-12-31T15:55:44.799Z,2.88
2022-12-31T15:58:15.047Z,1.92
2022-12-31T16:01:09.169Z,2.50
2022-12-31T16:03:36.282Z,3.05
2022-12-31T16:06:13.821Z,4.68
2022-12-31T16:08:41.067Z,4.20
2022-12-31T16:11:08.257Z,5.57
2022-12-31T16:13:38.003Z,4.38
2022-12-31T16:16:06.902Z,5.10
2022-12-31T16:18:40.758Z,5.78
2022-12-31T16:21:40.583Z,5.53
2022-12-31T16:24:29.412Z,4.82
2022-12-31T16:27:04.834Z,5.70
2022-12-31T16:29:31.852Z,5.38
2022-12-31T16:31:58.780Z,5.43
2022-12-31T16:34:27.092Z,5.35
2022-12-31T16:36:58.097Z,5.05
2022-12-31T16:41:53.681Z,6.32
2022-12-31T16:44:30.438Z,6.38
2022-12-31T16:47:00.798Z,9.43
2022-12-31T16:49:28.272Z,10.38
2022-12-31T16:51:57.490Z,10.18
2022-12-31T16:54:40.485Z,9.70
2022-12-31T16:57:10.956Z,9.05
2022-12-31T16:59:42.026Z,9.13
2022-12-31T17:02:16.638Z,8.57
2022-12-31T17:04:55.158Z,7.68
2022-12-31T17:07:26.700Z,7.38
2022-12-31T17:10:08.853Z,8.40
2022-12-31T17:13:16.971Z,7.57
2022-12-31T17:15:41.705Z,8.60
2022-12-31T17:18:14.970Z,15.15
2022-12-31T17:20:41.929Z,13.88
2022-12-31T17:23:08.995Z,16.05
2022-12-31T17:25:39.126Z,16.15
2022-12-31T17:28:07.980Z,15.05
2022-12-31T17:30:42.229Z,21.38
2022-12-31T17:33:09.145Z,22.48
2022-12-31T17:35:37.323Z,20.90
2022-12-31T17:38:22.483Z,20.33
2022-12-31T17:40:52.282Z,19.92
2022-12-31T17:43:20.547Z,17.30
2022-12-31T17:45:47.476Z,30.13
2022-12-31T17:48:15.701Z,43.25
2022-12-31T17:50:50.040Z,19.63
2022-12-31T17:53:17.070Z,16.48
2022-12-31T17:55:48.156Z,20.05
2022-12-31T17:58:31.895Z,22.25
2022-12-31T18:00:59.230Z,15.90
2022-12-31T18:03:26.366Z,17.27
2022-12-31T18:05:53.274Z,13.60
2022-12-31T18:08:20.176Z,10.95
2022-12-31T18:10:47.253Z,10.60
2022-12-31T18:13:17.406Z,10.00
2022-12-31T18:15:44.832Z,9.77
2022-12-31T18:18:25.563Z,11.38
2022-12-31T18:20:54.735Z,12.30
2022-12-31T18:23:24.300Z,14.40
2022-12-31T18:25:51.247Z,13.07
2022-12-31T18:28:18.141Z,12.15
2022-12-31T18:30:45.630Z,10.70
2022-12-31T18:33:13.266Z,11.48
2022-12-31T18:36:17.064Z,10.30
2022-12-31T18:38:31.541Z,14.85
2022-12-31T18:40:58.889Z,12.77
2022-12-31T18:43:25.884Z,11.25
2022-12-31T18:45:52.973Z,13.10
2022-12-31T18:48:20.082Z,13.95
2022-12-31T18:50:47.247Z,9.65
2022-12-31T18:53:21.927Z,7.25
2022-12-31T18:55:53.344Z,8.15
2022-12-31T18:58:20.585Z,9.45
2022-12-31T19:00:47.747Z,10.75
2022-12-31T19:03:24.192Z,11.70
2022-12-31T19:05:52.039Z,11.77
2022-12-31T19:08:22.171Z,10.85
2022-12-31T19:10:50.495Z,9.50
2022-12-31T19:13:18.370Z,9.38
2022-12-31T19:15:47.449Z,11.57
2022-12-31T19:18:14.563Z,9.18
2022-12-31T19:20:41.647Z,9.13
2022-12-31T19:23:26.946Z,9.00
2022-12-31T19:25:53.986Z,10.10
2022-12-31T19:28:23.957Z,8.10
2022-12-31T19:30:51.298Z,11.27
2022-12-31T19:33:18.579Z,7.50
2022-12-31T19:35:46.079Z,18.70
2022-12-31T19:38:21.449Z,16.38
2022-12-31T19:40:48.768Z,18.85
2022-12-31T19:43:16.687Z,19.15
2022-12-31T19:45:43.904Z,18.08
2022-12-31T19:48:15.611Z,12.93
2022-12-31T19:50:43.870Z,12.02
2022-12-31T19:53:17.071Z,10.52
2022-12-31T19:55:43.967Z,8.60
2022-12-31T19:58:21.687Z,5.60
2022-12-31T20:00:54.815Z,4.50
2022-12-31T20:03:25.638Z,3.03
2022-12-31T20:06:09.377Z,3.33
2022-12-31T20:08:37.546Z,4.90
2022-12-31T20:11:23.755Z,7.57
2022-12-31T20:13:52.380Z,5.63
2022-12-31T20:16:20.376Z,5.20
2022-12-31T20:18:47.495Z,5.32
2022-12-31T20:21:19.433Z,5.43
2022-12-31T20:23:46.421Z,5.85
2022-12-31T20:26:13.386Z,7.30
2022-12-31T20:28:40.383Z,5.75
2022-12-31T20:31:08.252Z,5.45
2022-12-31T20:33:35.422Z,11.00
2022-12-31T20:36:03.753Z,9.38
2022-12-31T20:38:30.863Z,4.63
2022-12-31T20:41:05.522Z,7.80
2022-12-31T20:43:33.211Z,12.95
2022-12-31T20:46:00.392Z,13.20
2022-12-31T20:48:27.480Z,13.73
2022-12-31T20:50:55.826Z,19.20
2022-12-31T20:53:22.915Z,17.45
2022-12-31T20:55:49.893Z,16.70
2022-12-31T20:58:16.984Z,17.83
2022-12-31T21:00:50.491Z,15.35
2022-12-31T21:04:02.219Z,18.27
2022-12-31T21:06:07.465Z,19.35
2022-12-31T21:08:35.278Z,17.80
2022-12-31T21:11:02.733Z,15.77
2022-12-31T21:13:31.368Z,26.75
2022-12-31T21:15:58.381Z,28.35
2022-12-31T21:18:25.983Z,28.48
2022-12-31T21:20:52.977Z,18.95
2022-12-31T21:23:20.111Z,20.40
2022-12-31T21:25:49.939Z,23.10
2022-12-31T21:28:17.107Z,25.13
2022-12-31T21:30:44.062Z,25.50
2022-12-31T21:33:11.056Z,25.92
2022-12-31T21:35:45.576Z,24.60
2022-12-31T21:38:15.949Z,26.98
2022-12-31T21:40:44.819Z,22.52
2022-12-31T21:43:12.328Z,24.55
2022-12-31T21:45:39.351Z,26.20
2022-12-31T21:48:22.409Z,35.72
2022-12-31T21:50:51.670Z,28.55
2022-12-31T21:53:24.538Z,20.65
2022-12-31T21:56:08.686Z,20.05
2022-12-31T21:58:40.127Z,21.55
2022-12-31T22:01:25.878Z,16.77
2022-12-31T22:03:52.918Z,17.13
2022-12-31T22:06:21.399Z,14.52
2022-12-31T22:08:50.214Z,12.18
2022-12-31T22:11:17.580Z,11.23
2022-12-31T22:13:44.559Z,11.07
2022-12-31T22:16:13.166Z,10.60
2022-12-31T22:18:41.211Z,10.20
2022-12-31T22:21:18.421Z,8.70
2022-12-31T22:23:48.075Z,7.47
2022-12-31T22:26:15.887Z,7.43
2022-12-31T22:28:43.384Z,7.78
2022-12-31T22:31:17.678Z,8.65
2022-12-31T22:33:44.749Z,9.07
2022-12-31T22:36:16.485Z,8.43
2022-12-31T22:38:43.796Z,8.45
2022-12-31T22:41:18.588Z,9.32
2022-12-31T22:43:47.480Z,8.13
2022-12-31T22:46:18.669Z,8.60
2022-12-31T22:48:46.251Z,7.80
2022-12-31T22:51:13.466Z,7.80
2022-12-31T22:53:41.402Z,8.98
2022-12-31T22:56:09.213Z,9.65
2022-12-31T22:58:36.241Z,10.00
2022-12-31T23:01:18.385Z,9.25
2022-12-31T23:03:49.298Z,10.43
2022-12-31T23:06:16.516Z,14.13
2022-12-31T23:09:03.483Z,11.55
2022-12-31T23:11:30.872Z,14.15
2022-12-31T23:14:16.643Z,36.65
2022-12-31T23:17:30.976Z,112.88
2022-12-31T23:20:07.540Z,343.48
2022-12-31T23:22:53.200Z,100.65
2022-12-31T23:25:20.197Z,98.22
2022-12-31T23:27:47.170Z,153.02
2022-12-31T23:30:14.200Z,133.73
2022-12-31T23:32:41.143Z,159.07
2022-12-31T23:35:10.032Z,181.30
2022-12-31T23:37:37.251Z,164.77
2022-12-31T23:40:04.826Z,171.98
2022-12-31T23:42:31.732Z,158.30
2022-12-31T23:44:58.678Z,186.05
2022-12-31T23:47:25.695Z,159.45
2022-12-31T23:49:52.637Z,180.93
2022-12-31T23:52:19.987Z,164.27
2022-12-31T23:54:46.953Z,144.75
2022-12-31T23:57:14.080Z,188.90
2022-12-31T23:59:41.030Z,172.50
